Oceanside, Oregon
Current Conditions -  °F | °C
As of 12:35 PM on Thursday 27 Nov 2014 (Local Time) from KTMK Reporting Station
Drizzle Drizzle  
Wind Chill: 55°   Ceiling: 2000
Heat Index: 55°   Visibility: 10mi
Dew Point: 54°   Wind: 13mph
Humidity: 94%   Direction: 160°SSE
Pressure: 29.93"   Gusts: NA
Location:  45.46°N, 123.97°W
Report Text: KTMK 272035Z AUTO 16011KT 10SM -DZ BKN020 OVC025 13/12 A2993 RMK AO2
Loading
Personal Weather Stations






























Interactive Weather Map New forecast layout! Learn more

10-Day Weather Forecast

Advertisements
Track Severe Weather on mobile